^^
Grace C. Lehan Memorial Weather Station Historical Data
Daily Summary for February 22, 2021 Units:  Both    English   Metric
Daily Weekly Monthly Yearly
  High: Low: Average:
Temperature: 79.6 °F /  26.4 °C 64.3 °F /  17.9 °C 70.8 °F /  21.6 °C
Dew Point: 72.4 °F /  22.4 °C 61.6 °F /  16.4 °C 67.3 °F /  19.6 °C
Humidity: 94% 74.5% 89%
Wind Speed: 2mph /  3.2km/h - 0.1mph /  0.2km/h
Wind Gust: 11mph /  17.7km/h - -
Wind- - South
Pressure: 30.23 in /  1023.6 hPa 30.00 in /  1015.8 hPa -
Precipitation: 0.00 in /  0 mm    
 
 
Tabular Data for February 22, 2021
Time Temperature Dew Point Pressure Wind Wind Speed Wind Gust Humidity Rainfall Rate (Hourly) solar
00:00 64.3 °F /  17.9 °C 61.6 °F /  16.4 °C 30.23in /  1023.6hPa Calm     91% 0.00in /  0mm 0 W/m2
00:09 64.5 °F /  18.1 °C 61.8 °F /  16.6 °C 30.23in /  1023.6hPa Calm     91% 0.00in /  0mm 0 W/m2
00:14 64.5 °F /  18.1 °C 61.9 °F /  16.6 °C 30.23in /  1023.6hPa Calm     91% 0.00in /  0mm 0 W/m2
00:19 64.7 °F /  18.2 °C 62 °F /  16.7 °C 30.23in /  1023.6hPa Calm     91% 0.00in /  0mm 0 W/m2
00:24 64.8 °F /  18.2 °C 62.1 °F /  16.7 °C 30.23in /  1023.6hPa Calm     91% 0.00in /  0mm 0 W/m2
00:29 64.9 °F /  18.3 °C 62.2 °F /  16.8 °C 30.23in /  1023.6hPa Calm     91% 0.00in /  0mm 0 W/m2
00:34 64.9 °F /  18.3 °C 62.2 °F /  16.8 °C 30.23in /  1023.6hPa Calm     91% 0.00in /  0mm 0 W/m2
00:39 65 °F /  18.3 °C 62.3 °F /  16.8 °C 30.23in /  1023.6hPa Calm     91% 0.00in /  0mm 0 W/m2
00:44 65 °F /  18.3 °C 62.2 °F /  16.8 °C 30.23in /  1023.6hPa Calm     90.7% 0.00in /  0mm 0 W/m2
00:49 65.1 °F /  18.4 °C 62.1 °F /  16.7 °C 30.22in /  1023.2hPa Calm     90% 0.00in /  0mm 0 W/m2
00:54 65.1 °F /  18.4 °C 62.1 °F /  16.7 °C 30.22in /  1023.2hPa Calm     90% 0.00in /  0mm 0 W/m2
00:59 65.1 °F /  18.4 °C 62.1 °F /  16.7 °C 30.22in /  1023.2hPa Calm     90% 0.00in /  0mm 0 W/m2
01:04 65.1 °F /  18.4 °C 62.1 °F /  16.7 °C 30.22in /  1023.2hPa Calm     90% 0.00in /  0mm 0 W/m2
01:09 65.2 °F /  18.4 °C 62.2 °F /  16.8 °C 30.22in /  1023.2hPa Calm     90% 0.00in /  0mm 0 W/m2
01:14 65.2 °F /  18.4 °C 62.2 °F /  16.8 °C 30.22in /  1023.2hPa Calm     90% 0.00in /  0mm 0 W/m2
01:19 65.3 °F /  18.5 °C 62.3 °F /  16.8 °C 30.22in /  1023.2hPa Calm     90% 0.00in /  0mm 0 W/m2
01:24 65.4 °F /  18.6 °C 62.4 °F /  16.9 °C 30.21in /  1022.9hPa Calm     90% 0.00in /  0mm 0 W/m2
01:29 65.4 °F /  18.6 °C 62.4 °F /  16.9 °C 30.21in /  1022.9hPa Calm     90% 0.00in /  0mm 0 W/m2
01:34 65.4 °F /  18.6 °C 62.4 °F /  16.9 °C 30.21in /  1022.9hPa Calm     90% 0.00in /  0mm 0 W/m2
01:39 65.5 °F /  18.6 °C 62.5 °F /  16.9 °C 30.21in /  1022.9hPa Calm     90% 0.00in /  0mm 0 W/m2
01:44 65.5 °F /  18.6 °C 62.5 °F /  16.9 °C 30.21in /  1022.9hPa Calm   1mph /  1.6km/h 90% 0.00in /  0mm 0 W/m2
01:49 65.5 °F /  18.6 °C 62.5 °F /  16.9 °C 30.20in /  1022.6hPa Calm   1mph /  1.6km/h 90% 0.00in /  0mm 0 W/m2
01:54 65.6 °F /  18.7 °C 62.6 °F /  17 °C 30.20in /  1022.6hPa Calm   1mph /  1.6km/h 90% 0.00in /  0mm 0 W/m2
01:59 65.6 °F /  18.7 °C 62.6 °F /  17 °C 30.20in /  1022.6hPa Calm   1mph /  1.6km/h 90% 0.00in /  0mm 0 W/m2
02:04 65.6 °F /  18.7 °C 62.6 °F /  17 °C 30.20in /  1022.6hPa Calm   1mph /  1.6km/h 90% 0.00in /  0mm 0 W/m2
02:09 65.6 °F /  18.7 °C 62.6 °F /  17 °C 30.20in /  1022.6hPa Calm     90% 0.00in /  0mm 0 W/m2
02:14 65.6 °F /  18.7 °C 62.8 °F /  17.1 °C 30.20in /  1022.6hPa Calm     90.7% 0.00in /  0mm 0 W/m2
02:19 65.6 °F /  18.7 °C 62.9 °F /  17.2 °C 30.20in /  1022.6hPa Calm     90.9% 0.00in /  0mm 0 W/m2
02:24 65.5 °F /  18.6 °C 62.9 °F /  17.2 °C 30.20in /  1022.6hPa Calm     91.2% 0.00in /  0mm 0 W/m2
02:29 65.5 °F /  18.6 °C 62.9 °F /  17.2 °C 30.20in /  1022.6hPa Calm     91.3% 0.00in /  0mm 0 W/m2
02:34 65.5 °F /  18.6 °C 62.9 °F /  17.2 °C 30.20in /  1022.6hPa Calm     91.3% 0.00in /  0mm 0 W/m2
02:39 65.4 °F /  18.6 °C 62.7 °F /  17.1 °C 30.19in /  1022.2hPa Calm     91% 0.00in /  0mm 0 W/m2
02:44 65.4 °F /  18.6 °C 62.7 °F /  17.1 °C 30.19in /  1022.2hPa Calm     91% 0.00in /  0mm 0 W/m2
02:49 65.5 °F /  18.6 °C 62.8 °F /  17.1 °C 30.19in /  1022.2hPa Calm     91% 0.00in /  0mm 0 W/m2
02:54 65.5 °F /  18.6 °C 62.8 °F /  17.1 °C 30.19in /  1022.2hPa Calm     91% 0.00in /  0mm 0 W/m2
02:59 65.5 °F /  18.6 °C 62.8 °F /  17.1 °C 30.19in /  1022.2hPa Calm     91% 0.00in /  0mm 0 W/m2
03:04 65.5 °F /  18.6 °C 62.9 °F /  17.2 °C 30.19in /  1022.2hPa Calm     91.1% 0.00in /  0mm 0 W/m2
03:09 65.6 °F /  18.7 °C 63.1 °F /  17.3 °C 30.19in /  1022.2hPa Calm     91.7% 0.00in /  0mm 0 W/m2
03:14 65.6 °F /  18.7 °C 63.2 °F /  17.3 °C 30.19in /  1022.2hPa Calm     92% 0.00in /  0mm 0 W/m2
03:19 65.6 °F /  18.7 °C 63.2 °F /  17.3 °C 30.18in /  1021.9hPa Calm     92% 0.00in /  0mm 0 W/m2
03:24 65.6 °F /  18.7 °C 63.2 °F /  17.3 °C 30.18in /  1021.9hPa Calm     92% 0.00in /  0mm 0 W/m2
03:29 65.6 °F /  18.7 °C 63.2 °F /  17.3 °C 30.18in /  1021.9hPa Calm     92% 0.00in /  0mm 0 W/m2
03:34 65.6 °F /  18.7 °C 63.2 °F /  17.3 °C 30.18in /  1021.9hPa Calm     92% 0.00in /  0mm 0 W/m2
03:39 65.6 °F /  18.7 °C 63.2 °F /  17.3 °C 30.18in /  1021.9hPa Calm     92% 0.00in /  0mm 0 W/m2
03:44 65.7 °F /  18.7 °C 63.3 °F /  17.4 °C 30.18in /  1021.9hPa Calm     92% 0.00in /  0mm 0 W/m2
03:49 65.7 °F /  18.7 °C 63.3 °F /  17.4 °C 30.18in /  1021.9hPa Calm     92% 0.00in /  0mm 0 W/m2
03:54 65.7 °F /  18.7 °C 63.3 °F /  17.4 °C 30.18in /  1021.9hPa Calm     92% 0.00in /  0mm 0 W/m2
03:59 65.8 °F /  18.8 °C 63.4 °F /  17.4 °C 30.18in /  1021.9hPa Calm     92% 0.00in /  0mm 0 W/m2
04:09 65.9 °F /  18.8 °C 63.5 °F /  17.5 °C 30.17in /  1021.6hPa Calm     92% 0.00in /  0mm 0 W/m2
04:14 65.9 °F /  18.8 °C 63.5 °F /  17.5 °C 30.17in /  1021.6hPa Calm     92% 0.00in /  0mm 0 W/m2
04:19 65.9 °F /  18.8 °C 63.5 °F /  17.5 °C 30.17in /  1021.6hPa Calm     92% 0.00in /  0mm 0 W/m2
04:24 65.9 °F /  18.8 °C 63.5 °F /  17.5 °C 30.17in /  1021.6hPa Calm     92% 0.00in /  0mm 0 W/m2
04:29 65.9 °F /  18.8 °C 63.7 °F /  17.6 °C 30.17in /  1021.6hPa Calm     92.7% 0.00in /  0mm 0 W/m2
04:34 65.9 °F /  18.8 °C 63.8 °F /  17.7 °C 30.17in /  1021.6hPa Calm     93% 0.00in /  0mm 0 W/m2
04:39 65.9 °F /  18.8 °C 63.8 °F /  17.7 °C 30.17in /  1021.6hPa Calm     93% 0.00in /  0mm 0 W/m2
04:44 65.9 °F /  18.8 °C 63.8 °F /  17.7 °C 30.17in /  1021.6hPa Calm     93% 0.00in /  0mm 0 W/m2
04:49 65.9 °F /  18.8 °C 63.8 °F /  17.7 °C 30.17in /  1021.6hPa Calm     93% 0.00in /  0mm 0 W/m2
04:54 66 °F /  18.9 °C 63.9 °F /  17.7 °C 30.17in /  1021.6hPa Calm     93% 0.00in /  0mm 0 W/m2
04:59 66 °F /  18.9 °C 63.9 °F /  17.7 °C 30.17in /  1021.6hPa Calm     93% 0.00in /  0mm 0 W/m2
05:04 66 °F /  18.9 °C 63.9 °F /  17.7 °C 30.16in /  1021.2hPa Calm     93% 0.00in /  0mm 0 W/m2
05:09 66 °F /  18.9 °C 63.9 °F /  17.7 °C 30.16in /  1021.2hPa Calm     93% 0.00in /  0mm 0 W/m2
05:14 66.1 °F /  18.9 °C 64 °F /  17.8 °C 30.16in /  1021.2hPa Calm     93% 0.00in /  0mm 0 W/m2
05:19 66.1 °F /  18.9 °C 64 °F /  17.8 °C 30.16in /  1021.2hPa Calm     93% 0.00in /  0mm 0 W/m2
05:24 66.1 °F /  18.9 °C 64 °F /  17.8 °C 30.16in /  1021.2hPa Calm     93% 0.00in /  0mm 0 W/m2
05:29 66.1 °F /  18.9 °C 64 °F /  17.8 °C 30.16in /  1021.2hPa Calm     93% 0.00in /  0mm 0 W/m2
05:34 66.1 °F /  18.9 °C 64 °F /  17.8 °C 30.16in /  1021.2hPa Calm     93% 0.00in /  0mm 0 W/m2
05:39 66.1 °F /  18.9 °C 64 °F /  17.8 °C 30.16in /  1021.2hPa Calm     93% 0.00in /  0mm 0 W/m2
05:44 66.1 °F /  18.9 °C 64 °F /  17.8 °C 30.15in /  1020.9hPa Calm     93% 0.00in /  0mm 0 W/m2
05:49 66.1 °F /  18.9 °C 64 °F /  17.8 °C 30.15in /  1020.9hPa Calm     93% 0.00in /  0mm 0 W/m2
05:54 66.1 °F /  18.9 °C 64 °F /  17.8 °C 30.15in /  1020.9hPa Calm     93% 0.00in /  0mm 0 W/m2
05:59 66.1 °F /  18.9 °C 64 °F /  17.8 °C 30.15in /  1020.9hPa Calm     93% 0.00in /  0mm 0 W/m2
06:04 66.2 °F /  19 °C 64.1 °F /  17.8 °C 30.15in /  1020.9hPa Calm     93% 0.00in /  0mm 0 W/m2
06:09 66.2 °F /  19 °C 64.1 °F /  17.8 °C 30.15in /  1020.9hPa Calm     93% 0.00in /  0mm 0 W/m2
06:14 66.2 °F /  19 °C 64.1 °F /  17.8 °C 30.15in /  1020.9hPa Calm     93% 0.00in /  0mm 0 W/m2
06:19 66.2 °F /  19 °C 64.1 °F /  17.8 °C 30.15in /  1020.9hPa Calm     93% 0.00in /  0mm 0 W/m2
06:24 66.2 °F /  19 °C 64.1 °F /  17.8 °C 30.15in /  1020.9hPa Calm     93% 0.00in /  0mm 0 W/m2
06:29 66.2 °F /  19 °C 64.1 °F /  17.8 °C 30.15in /  1020.9hPa Calm     93% 0.00in /  0mm 0 W/m2
06:34 66.2 °F /  19 °C 64.1 °F /  17.8 °C 30.15in /  1020.9hPa Calm     93% 0.00in /  0mm 0 W/m2
06:39 66.2 °F /  19 °C 64.1 °F /  17.8 °C 30.15in /  1020.9hPa ESE 0.1mph /  0.2km/h 2mph /  3.2km/h 93% 0.00in /  0mm 0 W/m2
06:44 66.2 °F /  19 °C 64.1 °F /  17.8 °C 30.15in /  1020.9hPa Calm   2mph /  3.2km/h 93% 0.00in /  0mm 0 W/m2
06:49 66.2 °F /  19 °C 64.1 °F /  17.8 °C 30.15in /  1020.9hPa Calm   2mph /  3.2km/h 93% 0.00in /  0mm 0 W/m2
06:54 66.2 °F /  19 °C 64.2 °F /  17.9 °C 30.15in /  1020.9hPa Calm   2mph /  3.2km/h 93% 0.00in /  0mm 5 W/m2
06:59 66.3 °F /  19.1 °C 64.2 °F /  17.9 °C 30.15in /  1020.9hPa Calm   2mph /  3.2km/h 93% 0.00in /  0mm 5 W/m2
07:04 66.3 °F /  19.1 °C 64.2 °F /  17.9 °C 30.15in /  1020.9hPa Calm   2mph /  3.2km/h 93% 0.00in /  0mm 7 W/m2
07:09 66.3 °F /  19.1 °C 64.2 °F /  17.9 °C 30.15in /  1020.9hPa Calm     93% 0.00in /  0mm 9 W/m2
07:14 66.4 °F /  19.1 °C 64.3 °F /  17.9 °C 30.15in /  1020.9hPa Calm     93% 0.00in /  0mm 19 W/m2
07:19 66.4 °F /  19.1 °C 64.3 °F /  17.9 °C 30.15in /  1020.9hPa Calm     93% 0.00in /  0mm 19 W/m2
07:24 66.5 °F /  19.2 °C 64.4 °F /  18 °C 30.15in /  1020.9hPa Calm     93% 0.00in /  0mm 32 W/m2
07:29 66.5 °F /  19.2 °C 64.4 °F /  18 °C 30.15in /  1020.9hPa Calm     93% 0.00in /  0mm 37 W/m2
07:34 66.6 °F /  19.2 °C 64.8 °F /  18.2 °C 30.14in /  1020.5hPa Calm     94% 0.00in /  0mm 37 W/m2
07:39 66.7 °F /  19.3 °C 64.9 °F /  18.3 °C 30.14in /  1020.5hPa Calm     94% 0.00in /  0mm 33 W/m2
07:44 66.8 °F /  19.3 °C 65 °F /  18.3 °C 30.14in /  1020.5hPa Calm     94% 0.00in /  0mm 32 W/m2
07:49 66.9 °F /  19.4 °C 65.1 °F /  18.4 °C 30.14in /  1020.5hPa Calm     94% 0.00in /  0mm 28 W/m2
07:54 67 °F /  19.4 °C 65.3 °F /  18.5 °C 30.14in /  1020.5hPa Calm     94% 0.00in /  0mm 28 W/m2
07:59 67.2 °F /  19.6 °C 65.4 °F /  18.6 °C 30.14in /  1020.5hPa Calm     94% 0.00in /  0mm 37 W/m2
08:00 67.2 °F /  19.6 °C 65.4 °F /  18.6 °C 30.14in /  1020.5hPa Calm     94% 0.00in /  0mm 37 W/m2
08:09 67.4 °F /  19.7 °C 65.6 °F /  18.7 °C 30.14in /  1020.5hPa Calm     94% 0.00in /  0mm 62 W/m2
08:14 67.6 °F /  19.8 °C 65.8 °F /  18.8 °C 30.14in /  1020.5hPa Calm     94% 0.00in /  0mm 95 W/m2
08:19 67.7 °F /  19.8 °C 65.9 °F /  18.8 °C 30.14in /  1020.5hPa Calm     94% 0.00in /  0mm 83 W/m2
08:24 67.9 °F /  19.9 °C 66.1 °F /  18.9 °C 30.14in /  1020.5hPa Calm     94% 0.00in /  0mm 53 W/m2
08:29 68.1 °F /  20.1 °C 66.3 °F /  19.1 °C 30.14in /  1020.5hPa Calm     94% 0.00in /  0mm 81 W/m2
08:34 68.3 °F /  20.2 °C 66.6 °F /  19.2 °C 30.14in /  1020.5hPa Calm     94% 0.00in /  0mm 116 W/m2
08:39 68.7 °F /  20.4 °C 66.9 °F /  19.4 °C 30.14in /  1020.5hPa Calm     94% 0.00in /  0mm 209 W/m2
08:44 69.1 °F /  20.6 °C 67.3 °F /  19.6 °C 30.14in /  1020.5hPa Calm     94% 0.00in /  0mm 206 W/m2
08:49 69.6 °F /  20.9 °C 67.8 °F /  19.9 °C 30.14in /  1020.5hPa Calm     94% 0.00in /  0mm 206 W/m2
08:54 70.2 °F /  21.2 °C 68.2 °F /  20.1 °C 30.13in /  1020.2hPa Calm     93.6% 0.00in /  0mm 125 W/m2
08:59 70.6 °F /  21.4 °C 68.5 °F /  20.3 °C 30.13in /  1020.2hPa Calm     93% 0.00in /  0mm 125 W/m2
09:04 71.1 °F /  21.7 °C 68.8 °F /  20.4 °C 30.13in /  1020.2hPa Calm     92.5% 0.00in /  0mm 137 W/m2
09:09 71.5 °F /  21.9 °C 69.2 °F /  20.7 °C 30.13in /  1020.2hPa ESE 0.1mph /  0.2km/h 2mph /  3.2km/h 92.2% 0.00in /  0mm 158 W/m2
09:14 72 °F /  22.2 °C 69.5 °F /  20.8 °C 30.13in /  1020.2hPa Calm   2mph /  3.2km/h 92% 0.00in /  0mm 178 W/m2
09:19 72.4 °F /  22.4 °C 69.9 °F /  21.1 °C 30.13in /  1020.2hPa Calm   2mph /  3.2km/h 91.8% 0.00in /  0mm 156 W/m2
09:24 72.8 °F /  22.7 °C 70 °F /  21.1 °C 30.13in /  1020.2hPa ESE 0.1mph /  0.2km/h 2mph /  3.2km/h 91% 0.00in /  0mm 165 W/m2
09:29 73.1 °F /  22.8 °C 70.3 °F /  21.3 °C 30.13in /  1020.2hPa ESE 0.1mph /  0.2km/h 2mph /  3.2km/h 90.9% 0.00in /  0mm 165 W/m2
09:34 73.5 °F /  23.1 °C 70.4 °F /  21.3 °C 30.13in /  1020.2hPa Calm   2mph /  3.2km/h 90.1% 0.00in /  0mm 123 W/m2
09:39 73.8 °F /  23.2 °C 70.7 °F /  21.5 °C 30.13in /  1020.2hPa Calm     90% 0.00in /  0mm 251 W/m2
09:44 74 °F /  23.3 °C 70.9 °F /  21.6 °C 30.13in /  1020.2hPa Calm   1mph /  1.6km/h 90% 0.00in /  0mm 251 W/m2
09:49 74.3 °F /  23.5 °C 70.9 °F /  21.6 °C 30.13in /  1020.2hPa ESE 0.2mph /  0.3km/h 5mph /  8km/h 89.2% 0.00in /  0mm 260 W/m2
09:54 74.7 °F /  23.7 °C 71.2 °F /  21.8 °C 30.12in /  1019.9hPa SSE 0.2mph /  0.3km/h 5mph /  8km/h 89% 0.00in /  0mm 262 W/m2
09:59 75.1 °F /  23.9 °C 71.3 °F /  21.8 °C 30.12in /  1019.9hPa Calm   5mph /  8km/h 88.2% 0.00in /  0mm 304 W/m2
10:04 75.4 °F /  24.1 °C 71.6 °F /  22 °C 30.12in /  1019.9hPa Calm   5mph /  8km/h 87.8% 0.00in /  0mm 214 W/m2
10:09 75.8 °F /  24.3 °C 71.7 °F /  22.1 °C 30.12in /  1019.9hPa Calm   1mph /  1.6km/h 87% 0.00in /  0mm 425 W/m2
10:14 76.2 °F /  24.6 °C 71.8 °F /  22.1 °C 30.12in /  1019.9hPa Calm   1mph /  1.6km/h 86.2% 0.00in /  0mm 367 W/m2
10:16 76.5 °F /  24.7 °C 72 °F /  22.2 °C 30.12in /  1019.9hPa South 0.4mph /  0.6km/h 2mph /  3.2km/h 86% 0.00in /  0mm 278 W/m2
10:30 77 °F /  25 °C 71.8 °F /  22.1 °C 30.12in /  1019.9hPa Calm   3mph /  4.8km/h 84% 0.00in /  0mm 249 W/m2
11:00 78 °F /  25.6 °C 72.1 °F /  22.3 °C 30.11in /  1019.5hPa SSW 1mph /  1.6km/h 6mph /  9.7km/h 82% 0.00in /  0mm 283 W/m2
11:30 78.6 °F /  25.9 °C 72.3 °F /  22.4 °C 30.10in /  1019.2hPa Calm   4mph /  6.4km/h 81% 0.00in /  0mm 271 W/m2
12:04 78.3 °F /  25.7 °C 71.3 °F /  21.8 °C 30.08in /  1018.5hPa Calm     79% 0.00in /  0mm 223 W/m2
12:09 78.2 °F /  25.7 °C 71 °F /  21.7 °C 30.08in /  1018.5hPa South 0.4mph /  0.6km/h 3mph /  4.8km/h 78.5% 0.00in /  0mm 248 W/m2
12:14 78.2 °F /  25.7 °C 70.9 °F /  21.6 °C 30.08in /  1018.5hPa South 0.5mph /  0.8km/h 5mph /  8km/h 78.4% 0.00in /  0mm 287 W/m2
12:19 78.3 °F /  25.7 °C 71.3 °F /  21.8 °C 30.08in /  1018.5hPa Calm   5mph /  8km/h 79% 0.00in /  0mm 294 W/m2
12:24 78.6 °F /  25.9 °C 71.6 °F /  22 °C 30.08in /  1018.5hPa SSW 0.1mph /  0.2km/h 5mph /  8km/h 79% 0.00in /  0mm 380 W/m2
12:29 78.9 °F /  26.1 °C 71.9 °F /  22.2 °C 30.08in /  1018.5hPa SSW 0.3mph /  0.5km/h 5mph /  8km/h 79% 0.00in /  0mm 429 W/m2
12:34 79.3 °F /  26.3 °C 71.8 °F /  22.1 °C 30.08in /  1018.5hPa SSW 0.3mph /  0.5km/h 5mph /  8km/h 77.8% 0.00in /  0mm 355 W/m2
12:39 79.6 °F /  26.4 °C 71.6 °F /  22 °C 30.07in /  1018.2hPa South 1mph /  1.6km/h 5mph /  8km/h 76.7% 0.00in /  0mm 301 W/m2
12:44 79.5 °F /  26.4 °C 71 °F /  21.7 °C 30.08in /  1018.5hPa SSW 0.6mph /  1km/h 5mph /  8km/h 75.4% 0.00in /  0mm 292 W/m2
12:49 79.5 °F /  26.4 °C 70.8 °F /  21.6 °C 30.07in /  1018.2hPa South 0.8mph /  1.3km/h 5mph /  8km/h 74.8% 0.00in /  0mm 257 W/m2
12:54 79.4 °F /  26.3 °C 70.6 °F /  21.4 °C 30.07in /  1018.2hPa SSW 0.8mph /  1.3km/h 7mph /  11.3km/h 74.5% 0.00in /  0mm 237 W/m2
12:59 79.3 °F /  26.3 °C 70.5 °F /  21.4 °C 30.07in /  1018.2hPa South 0.6mph /  1km/h 7mph /  11.3km/h 74.7% 0.00in /  0mm 220 W/m2
13:04 79.1 °F /  26.2 °C 70.5 °F /  21.4 °C 30.07in /  1018.2hPa Calm   7mph /  11.3km/h 75.2% 0.00in /  0mm 200 W/m2
13:09 78.8 °F /  26 °C 71.2 °F /  21.8 °C 30.07in /  1018.2hPa SSE 0.3mph /  0.5km/h 4mph /  6.4km/h 77.5% 0.00in /  0mm 176 W/m2
13:14 78.3 °F /  25.7 °C 71.7 °F /  22.1 °C 30.07in /  1018.2hPa Calm   4mph /  6.4km/h 80.3% 0.00in /  0mm 181 W/m2
13:19 77.7 °F /  25.4 °C 72 °F /  22.2 °C 30.07in /  1018.2hPa South 0.1mph /  0.2km/h 4mph /  6.4km/h 82.6% 0.00in /  0mm 165 W/m2
13:24 77.3 °F /  25.2 °C 72.1 °F /  22.3 °C 30.06in /  1017.8hPa Calm   4mph /  6.4km/h 84% 0.00in /  0mm 149 W/m2
13:29 77 °F /  25 °C 72.2 °F /  22.3 °C 30.06in /  1017.8hPa Calm   4mph /  6.4km/h 85.2% 0.00in /  0mm 139 W/m2
13:34 76.8 °F /  24.9 °C 72.2 °F /  22.3 °C 30.06in /  1017.8hPa Calm   4mph /  6.4km/h 85.7% 0.00in /  0mm 118 W/m2
13:39 76.7 °F /  24.8 °C 72.2 °F /  22.3 °C 30.06in /  1017.8hPa Calm     86% 0.00in /  0mm 169 W/m2
13:44 76.6 °F /  24.8 °C 72.1 °F /  22.3 °C 30.06in /  1017.8hPa SSE 0.1mph /  0.2km/h 2mph /  3.2km/h 86% 0.00in /  0mm 251 W/m2
13:49 76.6 °F /  24.8 °C 71.6 °F /  22 °C 30.05in /  1017.5hPa SSE 0.3mph /  0.5km/h 3mph /  4.8km/h 84.3% 0.00in /  0mm 288 W/m2
13:54 77 °F /  25 °C 71.8 °F /  22.1 °C 30.05in /  1017.5hPa Calm   3mph /  4.8km/h 84% 0.00in /  0mm 265 W/m2
13:59 77.3 °F /  25.2 °C 71.9 °F /  22.2 °C 30.05in /  1017.5hPa South 0.1mph /  0.2km/h 3mph /  4.8km/h 83.4% 0.00in /  0mm 258 W/m2
14:04 77.6 °F /  25.3 °C 71.6 °F /  22 °C 30.05in /  1017.5hPa SSE 0.1mph /  0.2km/h 3mph /  4.8km/h 81.8% 0.00in /  0mm 183 W/m2
14:09 77.7 °F /  25.4 °C 71.1 °F /  21.7 °C 30.05in /  1017.5hPa Calm   2mph /  3.2km/h 80.1% 0.00in /  0mm 176 W/m2
14:14 77.7 °F /  25.4 °C 71.2 °F /  21.8 °C 30.05in /  1017.5hPa SSE 0.1mph /  0.2km/h 2mph /  3.2km/h 80.2% 0.00in /  0mm 178 W/m2
14:19 77.7 °F /  25.4 °C 71 °F /  21.7 °C 30.04in /  1017.2hPa SSE 0.2mph /  0.3km/h 3mph /  4.8km/h 80% 0.00in /  0mm 185 W/m2
14:24 77.7 °F /  25.4 °C 71 °F /  21.7 °C 30.04in /  1017.2hPa Calm   3mph /  4.8km/h 80% 0.00in /  0mm 146 W/m2
14:29 77.6 °F /  25.3 °C 71 °F /  21.7 °C 30.04in /  1017.2hPa SSE 0.6mph /  1km/h 4mph /  6.4km/h 80% 0.00in /  0mm 141 W/m2
14:34 77.5 °F /  25.3 °C 71.1 °F /  21.7 °C 30.04in /  1017.2hPa South 1.4mph /  2.3km/h 9mph /  14.5km/h 80.7% 0.00in /  0mm 156 W/m2
14:39 77.4 °F /  25.2 °C 71.1 °F /  21.7 °C 30.04in /  1017.2hPa SSE 0.4mph /  0.6km/h 9mph /  14.5km/h 81% 0.00in /  0mm 158 W/m2
14:44 77.4 °F /  25.2 °C 71.1 °F /  21.7 °C 30.04in /  1017.2hPa South 0.1mph /  0.2km/h 9mph /  14.5km/h 81% 0.00in /  0mm 171 W/m2
14:49 77.4 °F /  25.2 °C 71.1 °F /  21.7 °C 30.03in /  1016.8hPa South 0.1mph /  0.2km/h 9mph /  14.5km/h 81% 0.00in /  0mm 181 W/m2
14:54 77.4 °F /  25.2 °C 71.1 °F /  21.7 °C 30.03in /  1016.8hPa South 0.3mph /  0.5km/h 9mph /  14.5km/h 81% 0.00in /  0mm 223 W/m2
14:59 77.4 °F /  25.2 °C 70.9 °F /  21.6 °C 30.03in /  1016.8hPa SSE 0.3mph /  0.5km/h 9mph /  14.5km/h 80.3% 0.00in /  0mm 225 W/m2
15:04 77.4 °F /  25.2 °C 70.8 °F /  21.6 °C 30.03in /  1016.8hPa South 0.4mph /  0.6km/h 9mph /  14.5km/h 80% 0.00in /  0mm 213 W/m2
15:09 77.5 °F /  25.3 °C 70.9 °F /  21.6 °C 30.03in /  1016.8hPa South 0.2mph /  0.3km/h 5mph /  8km/h 80.2% 0.00in /  0mm 213 W/m2
15:14 77.5 °F /  25.3 °C 70.9 °F /  21.6 °C 30.03in /  1016.8hPa South 0.3mph /  0.5km/h 5mph /  8km/h 80% 0.00in /  0mm 338 W/m2
15:19 77.6 °F /  25.3 °C 71 °F /  21.7 °C 30.03in /  1016.8hPa South 0.9mph /  1.4km/h 6mph /  9.7km/h 80% 0.00in /  0mm 255 W/m2
15:24 77.8 °F /  25.4 °C 71.1 °F /  21.7 °C 30.03in /  1016.8hPa South 1mph /  1.6km/h 9mph /  14.5km/h 80% 0.00in /  0mm 255 W/m2
15:29 77.9 °F /  25.5 °C 70.6 °F /  21.4 °C 30.03in /  1016.8hPa South 0.4mph /  0.6km/h 9mph /  14.5km/h 78.3% 0.00in /  0mm 220 W/m2
15:34 78 °F /  25.6 °C 70.6 °F /  21.4 °C 30.03in /  1016.8hPa South 2mph /  3.2km/h 11mph /  17.7km/h 78% 0.00in /  0mm 292 W/m2
15:39 78 °F /  25.6 °C 70.5 °F /  21.4 °C 30.02in /  1016.5hPa South 0.4mph /  0.6km/h 11mph /  17.7km/h 77.7% 0.00in /  0mm 230 W/m2
15:44 78.1 °F /  25.6 °C 70.7 °F /  21.5 °C 30.02in /  1016.5hPa South 0.4mph /  0.6km/h 11mph /  17.7km/h 78% 0.00in /  0mm 146 W/m2
15:49 77.9 °F /  25.5 °C 70.7 °F /  21.5 °C 30.02in /  1016.5hPa ESE 0.4mph /  0.6km/h 11mph /  17.7km/h 78.6% 0.00in /  0mm 139 W/m2
15:54 77.7 °F /  25.4 °C 70.7 °F /  21.5 °C 30.02in /  1016.5hPa South 0.8mph /  1.3km/h 11mph /  17.7km/h 79% 0.00in /  0mm 171 W/m2
15:59 77.6 °F /  25.3 °C 70.8 °F /  21.6 °C 30.02in /  1016.5hPa SSE 0.2mph /  0.3km/h 11mph /  17.7km/h 79.7% 0.00in /  0mm 160 W/m2
16:09 77.5 °F /  25.3 °C 71 °F /  21.7 °C 30.02in /  1016.5hPa Calm     80.5% 0.00in /  0mm 132 W/m2
16:14 77.6 °F /  25.3 °C 71.3 °F /  21.8 °C 30.02in /  1016.5hPa Calm   2mph /  3.2km/h 81% 0.00in /  0mm 109 W/m2
16:19 77.6 °F /  25.3 °C 71.2 °F /  21.8 °C 30.01in /  1016.1hPa South 0.2mph /  0.3km/h 3mph /  4.8km/h 80.6% 0.00in /  0mm 148 W/m2
16:24 77.5 °F /  25.3 °C 71 °F /  21.7 °C 30.01in /  1016.1hPa South 0.1mph /  0.2km/h 3mph /  4.8km/h 80.4% 0.00in /  0mm 186 W/m2
16:29 77.7 °F /  25.4 °C 71.4 °F /  21.9 °C 30.01in /  1016.1hPa SSW 0.3mph /  0.5km/h 5mph /  8km/h 81% 0.00in /  0mm 185 W/m2
16:34 77.8 °F /  25.4 °C 71.2 °F /  21.8 °C 30.01in /  1016.1hPa SSW 0.3mph /  0.5km/h 5mph /  8km/h 80.2% 0.00in /  0mm 142 W/m2
16:39 77.8 °F /  25.4 °C 71.4 °F /  21.9 °C 30.01in /  1016.1hPa Calm   4mph /  6.4km/h 80.6% 0.00in /  0mm 146 W/m2
17:00 76.9 °F /  24.9 °C 71.7 °F /  22.1 °C 30.00in /  1015.8hPa Calm   9mph /  14.5km/h 84% 0.02in /  0.51mm 83 W/m2
17:30 75.2 °F /  24 °C 72.4 °F /  22.4 °C 30.01in /  1016.1hPa Calm     91% 0.03in /  0.76mm 37 W/m2
18:00 74.9 °F /  23.8 °C 71.8 °F /  22.1 °C 30.00in /  1015.8hPa Calm   3mph /  4.8km/h 90% 0.03in /  0.76mm 47 W/m2
18:30 74.5 °F /  23.6 °C 71.1 °F /  21.7 °C 30.01in /  1016.1hPa Calm   7mph /  11.3km/h 89% 0.01in /  0.25mm 9 W/m2
19:00 74.3 °F /  23.5 °C 71.2 °F /  21.8 °C 30.00in /  1015.8hPa Calm     90% 0.00in /  0mm 0 W/m2
19:30 73.3 °F /  22.9 °C 70.5 °F /  21.4 °C 30.01in /  1016.1hPa Calm   3mph /  4.8km/h 91% 0.01in /  0.25mm 0 W/m2
20:04 72.5 °F /  22.5 °C 70.4 °F /  21.3 °C 30.01in /  1016.1hPa Calm     93% 0.01in /  0.25mm 0 W/m2
20:09 72.5 °F /  22.5 °C 70.3 °F /  21.3 °C 30.01in /  1016.1hPa Calm     93% 0.01in /  0.25mm 0 W/m2
20:14 72.4 °F /  22.4 °C 70.3 °F /  21.3 °C 30.01in /  1016.1hPa Calm     93% 0.01in /  0.25mm 0 W/m2
20:19 72.4 °F /  22.4 °C 70.3 °F /  21.3 °C 30.01in /  1016.1hPa Calm     93% 0.01in /  0.25mm 0 W/m2
20:24 72.3 °F /  22.4 °C 70.2 °F /  21.2 °C 30.01in /  1016.1hPa Calm     93% 0.01in /  0.25mm 0 W/m2
20:29 72.3 °F /  22.4 °C 70.2 °F /  21.2 °C 30.01in /  1016.1hPa Calm     93% 0.01in /  0.25mm 0 W/m2
20:34 72.2 °F /  22.3 °C 70.2 °F /  21.2 °C 30.01in /  1016.1hPa Calm     93.5% 0.01in /  0.25mm 0 W/m2
20:39 72.2 °F /  22.3 °C 70.4 °F /  21.3 °C 30.01in /  1016.1hPa Calm     94% 0.00in /  0mm 0 W/m2
20:44 72.1 °F /  22.3 °C 70.3 °F /  21.3 °C 30.01in /  1016.1hPa Calm     94% 0.00in /  0mm 0 W/m2
20:49 72.1 °F /  22.3 °C 70.3 °F /  21.3 °C 30.01in /  1016.1hPa Calm     94% 0.00in /  0mm 0 W/m2
20:54 72.1 °F /  22.3 °C 70.3 °F /  21.3 °C 30.01in /  1016.1hPa Calm     94% 0.00in /  0mm 0 W/m2
20:59 72.1 °F /  22.3 °C 70.3 °F /  21.3 °C 30.01in /  1016.1hPa Calm     94% 0.00in /  0mm 0 W/m2
21:04 72.2 °F /  22.3 °C 70.3 °F /  21.3 °C 30.02in /  1016.5hPa Calm     94% 0.00in /  0mm 0 W/m2
21:09 72.2 °F /  22.3 °C 70.4 °F /  21.3 °C 30.02in /  1016.5hPa Calm     94% 0.00in /  0mm 0 W/m2
21:14 72.2 °F /  22.3 °C 70.4 °F /  21.3 °C 30.02in /  1016.5hPa Calm     94% 0.00in /  0mm 0 W/m2
21:16 72.2 °F /  22.3 °C 70.4 °F /  21.3 °C 30.01in /  1016.1hPa Calm     94% 0.00in /  0mm 0 W/m2
21:30 72.3 °F /  22.4 °C 70.5 °F /  21.4 °C 30.02in /  1016.5hPa Calm     94% 0.00in /  0mm 0 W/m2
22:00 72.2 °F /  22.3 °C 70.4 °F /  21.3 °C 30.02in /  1016.5hPa Calm   5mph /  8km/h 94% 0.00in /  0mm 0 W/m2
22:30 72.2 °F /  22.3 °C 70.4 °F /  21.3 °C 30.02in /  1016.5hPa Calm   2mph /  3.2km/h 94% 0.00in /  0mm 0 W/m2
23:00 72.1 °F /  22.3 °C 70.3 °F /  21.3 °C 30.01in /  1016.1hPa Calm   2mph /  3.2km/h 94% 0.00in /  0mm 0 W/m2
23:30 72.2 °F /  22.3 °C 70.4 °F /  21.3 °C 30.02in /  1016.5hPa Calm   1mph /  1.6km/h 94% 0.00in /  0mm 0 W/m2
Hartford County Weather
Compliments of Weather Underground - 4 mb